Time;durP1;ratioP1;P1;durP2;ratioP2;P2;SDS_P1;SDS_P2;PMS_P1;PMS_P2;Temp;Humidity;BMP_temperature;BMP_pressure;BME280_temperature;BME280_humidity;BME280_pressure;Samples;Min_cycle;Max_cycle;Signal;HPM_P1;HPM_P2
2021/03/08 00:02:02;;;;;;;18.08;10.10;;;;;9.70;102211.00;;;;5077974;28;20195;-77
2021/03/08 00:04:30;;;;;;;18.60;10.25;;;;;9.60;102213.00;;;;5091080;28;20578;-76
2021/03/08 00:06:56;;;;;;;18.80;10.93;;;;;9.70;102214.00;;;;5089036;28;20691;-77
2021/03/08 00:09:23;;;;;;;18.92;10.43;;;;;9.70;102219.00;;;;5074431;28;20255;-77
2021/03/08 00:11:50;;;;;;;19.75;10.40;;;;;9.70;102209.00;;;;5071999;28;20248;-76
2021/03/08 00:14:17;;;;;;;19.65;10.52;;;;;9.70;102212.00;;;;5091245;28;20627;-77
2021/03/08 00:16:43;;;;;;;19.30;10.07;;;;;9.70;102199.00;;;;5071139;28;20218;-77
2021/03/08 00:19:10;;;;;;;18.20;10.55;;;;;9.70;102202.00;;;;5090176;28;20245;-77
2021/03/08 00:21:38;;;;;;;22.83;12.32;;;;;9.70;102198.00;;;;5091184;28;20202;-77
2021/03/08 00:24:05;;;;;;;20.55;11.77;;;;;9.70;102199.00;;;;5070542;28;20271;-77
2021/03/08 00:26:32;;;;;;;20.50;10.63;;;;;9.70;102205.00;;;;5076847;28;20210;-77
2021/03/08 00:28:59;;;;;;;17.70;10.35;;;;;9.70;102195.00;;;;5088115;28;20221;-77
2021/03/08 00:31:25;;;;;;;22.63;11.75;;;;;9.70;102197.00;;;;5083162;28;20198;-77
2021/03/08 00:33:52;;;;;;;20.95;11.27;;;;;9.70;102198.00;;;;5088205;28;20613;-77
2021/03/08 00:36:19;;;;;;;20.35;10.57;;;;;9.70;102207.00;;;;5086442;28;20261;-77
2021/03/08 00:38:46;;;;;;;22.92;11.65;;;;;9.70;102197.00;;;;5070441;28;20274;-77
2021/03/08 00:41:13;;;;;;;19.73;11.27;;;;;9.70;102203.00;;;;5079850;28;20203;-77
2021/03/08 00:43:40;;;;;;;21.20;11.23;;;;;9.80;102198.00;;;;5086652;28;20259;-77
2021/03/08 00:46:06;;;;;;;18.75;11.10;;;;;9.80;102199.00;;;;5089095;28;20268;-76
2021/03/08 00:48:33;;;;;;;19.38;10.77;;;;;9.80;102201.00;;;;5089989;28;20206;-77
2021/03/08 00:51:00;;;;;;;19.17;11.00;;;;;9.80;102195.00;;;;5071915;28;20198;-77
2021/03/08 00:53:26;;;;;;;18.55;10.57;;;;;9.80;102201.00;;;;5075464;28;20191;-76
2021/03/08 00:55:54;;;;;;;19.05;10.18;;;;;9.80;102198.00;;;;5089921;28;20201;-77
2021/03/08 00:58:21;;;;;;;20.75;11.10;;;;;9.80;102200.00;;;;5086279;28;20202;-77
2021/03/08 01:00:48;;;;;;;21.98;11.32;;;;;9.80;102197.00;;;;5084319;28;20226;-77
2021/03/08 01:03:14;;;;;;;22.35;11.70;;;;;9.80;102197.00;;;;5090481;28;20201;-77
2021/03/08 01:05:41;;;;;;;19.73;10.32;;;;;9.80;102196.00;;;;5090204;28;20338;-77
2021/03/08 01:08:08;;;;;;;20.88;11.40;;;;;9.80;102192.00;;;;5077614;28;20199;-77
2021/03/08 01:10:34;;;;;;;21.00;10.65;;;;;9.80;102195.00;;;;5079304;28;20194;-77
2021/03/08 01:13:02;;;;;;;20.00;10.82;;;;;9.80;102191.00;;;;5083755;28;20862;-77
2021/03/08 01:15:29;;;;;;;22.58;11.93;;;;;9.80;102193.00;;;;5081026;28;20200;-77
2021/03/08 01:17:56;;;;;;;22.27;12.07;;;;;9.80;102184.00;;;;5080277;28;20228;-77
2021/03/08 01:20:23;;;;;;;19.17;10.35;;;;;9.80;102186.00;;;;5077845;28;20218;-77
2021/03/08 01:22:50;;;;;;;20.05;10.55;;;;;9.80;102189.00;;;;5088537;28;20259;-77
2021/03/08 01:25:21;;;;;;;20.48;12.02;;;;;9.80;102190.00;;;;5089279;28;20358;-77
2021/03/08 01:27:48;;;;;;;22.08;11.48;;;;;9.80;102180.00;;;;5087803;28;20198;-77
2021/03/08 01:30:19;;;;;;;22.35;12.25;;;;;9.80;102178.00;;;;5086307;28;20194;-77
2021/03/08 01:32:46;;;;;;;20.08;11.60;;;;;9.80;102177.00;;;;5089072;28;20210;-77
2021/03/08 01:35:13;;;;;;;22.92;12.05;;;;;9.80;102178.00;;;;5086013;28;20206;-77
2021/03/08 01:37:40;;;;;;;25.65;11.68;;;;;9.80;102169.00;;;;5072059;28;20203;-77
2021/03/08 01:40:10;;;;;;;20.83;10.77;;;;;9.80;102173.00;;;;5089494;28;20233;-77
2021/03/08 01:42:38;;;;;;;17.75;9.48;;;;;9.80;102159.00;;;;5079806;28;20572;-77
2021/03/08 01:45:07;;;;;;;20.85;11.45;;;;;9.80;102164.00;;;;5076792;28;20234;-77
2021/03/08 01:47:36;;;;;;;17.40;10.48;;;;;9.80;102164.00;;;;5085953;28;20236;-77
2021/03/08 01:50:05;;;;;;;20.60;11.27;;;;;9.70;102167.00;;;;5068778;28;20210;-77
2021/03/08 01:52:32;;;;;;;19.55;11.07;;;;;9.80;102170.00;;;;5083258;28;20209;-77
2021/03/08 01:54:59;;;;;;;20.80;11.20;;;;;9.70;102161.00;;;;5071204;28;20700;-77
2021/03/08 01:57:26;;;;;;;18.80;10.38;;;;;9.70;102159.00;;;;5069669;28;20195;-77
2021/03/08 01:59:53;;;;;;;26.23;12.07;;;;;9.80;102153.00;;;;5076978;28;20242;-77
2021/03/08 02:02:21;;;;;;;19.63;11.43;;;;;9.80;102151.00;;;;5089081;28;20213;-77
2021/03/08 02:04:48;;;;;;;19.27;11.55;;;;;9.80;102155.00;;;;5087200;28;20221;-77
2021/03/08 02:07:16;;;;;;;19.17;10.70;;;;;9.80;102156.00;;;;5088435;28;20206;-77
2021/03/08 02:09:43;;;;;;;19.80;10.68;;;;;9.80;102156.00;;;;5088483;28;20271;-77
2021/03/08 02:12:14;;;;;;;20.85;10.82;;;;;9.70;102156.00;;;;5076639;28;20191;-76
2021/03/08 02:15:02;;;;;;;21.02;10.93;;;;;9.70;102141.00;;;;5074108;28;20190;-77
2021/03/08 02:17:37;;;;;;;20.17;10.52;;;;;9.70;102145.00;;;;5081189;28;20191;-77
2021/03/08 02:20:40;;;;;;;18.17;10.75;;;;;9.70;102140.00;;;;5078681;28;20217;-77
2021/03/08 02:23:33;;;;;;;19.40;10.32;;;;;9.70;102138.00;;;;5068082;28;20191;-77
2021/03/08 02:26:37;;;;;;;18.45;9.88;;;;;9.60;102139.00;;;;5078524;28;20191;-77
2021/03/08 02:29:26;;;;;;;19.25;10.52;;;;;9.60;102134.00;;;;5084020;28;20198;-77
2021/03/08 02:31:56;;;;;;;19.30;9.85;;;;;9.70;102122.00;;;;5086554;28;20648;-77
2021/03/08 02:34:29;;;;;;;18.42;9.98;;;;;9.70;102128.00;;;;5086957;28;20197;-77
2021/03/08 02:37:02;;;;;;;20.58;10.25;;;;;9.70;102131.00;;;;5086156;28;20251;-77
2021/03/08 02:39:33;;;;;;;19.45;10.32;;;;;9.70;102129.00;;;;5087757;28;20703;-77
2021/03/08 02:42:02;;;;;;;21.55;10.80;;;;;9.70;102126.00;;;;5072054;28;20202;-77
2021/03/08 02:44:33;;;;;;;19.63;10.73;;;;;9.70;102125.00;;;;5082407;28;20556;-77
2021/03/08 02:47:01;;;;;;;18.13;9.85;;;;;9.70;102116.00;;;;5069997;28;20230;-77
2021/03/08 02:49:30;;;;;;;17.85;10.10;;;;;9.70;102120.00;;;;5072245;28;20679;-77
2021/03/08 02:52:00;;;;;;;19.48;10.35;;;;;9.70;102120.00;;;;5068992;28;20679;-77
2021/03/08 02:54:30;;;;;;;19.33;10.77;;;;;9.70;102113.00;;;;5068320;28;20210;-77
2021/03/08 02:57:01;;;;;;;21.65;11.68;;;;;9.70;102113.00;;;;5071922;28;20218;-77
2021/03/08 02:59:30;;;;;;;21.00;11.18;;;;;9.70;102107.00;;;;5086892;28;20222;-77
2021/03/08 03:01:59;;;;;;;17.67;10.02;;;;;9.70;102115.00;;;;5091589;28;20195;-77
2021/03/08 03:04:28;;;;;;;20.30;10.95;;;;;9.70;102110.00;;;;5087420;28;20190;-77
2021/03/08 03:06:55;;;;;;;20.17;10.40;;;;;9.70;102107.00;;;;5073049;28;20199;-77
2021/03/08 03:09:22;;;;;;;18.25;9.40;;;;;9.70;102108.00;;;;5091908;28;20224;-77
2021/03/08 03:11:53;;;;;;;19.70;10.57;;;;;9.70;102107.00;;;;5091090;28;20202;-77
2021/03/08 03:14:22;;;;;;;19.38;11.45;;;;;9.70;102110.00;;;;5092439;28;20198;-77
2021/03/08 03:16:52;;;;;;;17.58;9.93;;;;;9.70;102106.00;;;;5090841;28;20194;-77
2021/03/08 03:19:20;;;;;;;18.88;9.85;;;;;9.70;102102.00;;;;5091557;28;20229;-77
2021/03/08 03:21:48;;;;;;;19.95;10.05;;;;;9.70;102106.00;;;;5091648;28;20679;-77
2021/03/08 03:24:15;;;;;;;19.48;10.10;;;;;9.70;102105.00;;;;5091076;28;20695;-77
2021/03/08 03:26:43;;;;;;;17.40;9.60;;;;;9.70;102111.00;;;;5091238;28;20216;-77
2021/03/08 03:29:11;;;;;;;18.13;9.88;;;;;9.70;102106.00;;;;5075597;28;20202;-77
2021/03/08 03:31:40;;;;;;;20.98;10.65;;;;;9.70;102103.00;;;;5081200;28;20691;-77
2021/03/08 03:34:08;;;;;;;20.80;11.13;;;;;9.80;102108.00;;;;5091309;28;20194;-77
2021/03/08 03:36:38;;;;;;;16.95;9.82;;;;;9.70;102105.00;;;;5091725;28;20194;-77
2021/03/08 03:39:09;;;;;;;18.92;10.20;;;;;9.70;102109.00;;;;5085178;28;20187;-77
2021/03/08 03:41:36;;;;;;;18.50;10.40;;;;;9.80;102106.00;;;;5071463;28;20206;-77
2021/03/08 03:44:04;;;;;;;19.58;10.77;;;;;9.80;102117.00;;;;5091135;28;20209;-77
2021/03/08 03:46:31;;;;;;;21.08;11.23;;;;;9.80;102117.00;;;;5089732;28;20229;-77
2021/03/08 03:48:58;;;;;;;22.30;11.07;;;;;9.80;102116.00;;;;5072707;28;20199;-77
2021/03/08 03:51:25;;;;;;;19.60;11.60;;;;;9.80;102118.00;;;;5089138;28;20190;-77
2021/03/08 03:53:52;;;;;;;16.88;10.43;;;;;9.80;102118.00;;;;5085165;28;20191;-77
2021/03/08 03:56:24;;;;;;;19.45;10.75;;;;;9.80;102117.00;;;;5091762;28;20588;-77
2021/03/08 03:58:54;;;;;;;17.27;9.50;;;;;9.80;102115.00;;;;5090536;28;20201;-77
2021/03/08 04:01:24;;;;;;;18.25;10.18;;;;;9.80;102121.00;;;;5089819;28;20202;-77
2021/03/08 04:03:55;;;;;;;17.52;9.27;;;;;9.80;102127.00;;;;5091482;28;20190;-77
2021/03/08 04:06:27;;;;;;;20.40;10.45;;;;;9.90;102130.00;;;;5090557;28;20233;-77
2021/03/08 04:08:57;;;;;;;17.45;9.82;;;;;9.90;102127.00;;;;5090222;28;20202;-77
2021/03/08 04:11:30;;;;;;;19.13;10.57;;;;;9.90;102136.00;;;;5071265;28;20198;-77
2021/03/08 04:13:59;;;;;;;20.55;11.25;;;;;9.90;102140.00;;;;5076091;28;20207;-77
2021/03/08 04:16:27;;;;;;;18.48;10.05;;;;;9.90;102135.00;;;;5072903;28;20227;-77
2021/03/08 04:18:55;;;;;;;20.30;10.90;;;;;9.90;102140.00;;;;5070968;28;20203;-77
2021/03/08 04:21:23;;;;;;;17.58;9.50;;;;;9.90;102142.00;;;;5070865;28;20234;-77
2021/03/08 04:23:50;;;;;;;20.73;9.68;;;;;9.90;102137.00;;;;5081858;28;20228;-77
2021/03/08 04:26:19;;;;;;;20.30;10.88;;;;;9.90;102143.00;;;;5085091;28;20201;-77
2021/03/08 04:28:47;;;;;;;20.40;9.10;;;;;9.90;102143.00;;;;5073563;28;20370;-77
2021/03/08 04:31:16;;;;;;;17.77;10.30;;;;;9.90;102138.00;;;;5086875;28;20194;-77
2021/03/08 04:33:45;;;;;;;17.85;10.13;;;;;9.90;102137.00;;;;5090884;28;20243;-77
2021/03/08 04:36:13;;;;;;;18.65;10.07;;;;;9.90;102145.00;;;;5086653;28;20202;-77
2021/03/08 04:38:41;;;;;;;19.45;10.82;;;;;9.90;102143.00;;;;5076950;28;20227;-77
2021/03/08 04:41:09;;;;;;;18.08;10.02;;;;;9.90;102142.00;;;;5073689;28;20229;-77
2021/03/08 04:43:37;;;;;;;19.23;10.35;;;;;9.90;102146.00;;;;5090644;28;20190;-77
2021/03/08 04:46:06;;;;;;;18.75;10.88;;;;;9.90;102151.00;;;;5089482;28;20240;-77
2021/03/08 04:48:35;;;;;;;16.38;9.25;;;;;9.90;102141.00;;;;5090158;28;20586;-77
2021/03/08 04:51:07;;;;;;;22.05;10.23;;;;;9.90;102145.00;;;;5090655;28;20243;-77
2021/03/08 04:53:34;;;;;;;21.17;11.38;;;;;10.00;102148.00;;;;5085145;28;20195;-77
2021/03/08 04:56:02;;;;;;;19.67;9.95;;;;;10.00;102148.00;;;;5082072;28;20668;-77
2021/03/08 04:58:30;;;;;;;19.70;10.05;;;;;10.00;102141.00;;;;5088003;28;20652;-77
2021/03/08 05:00:57;;;;;;;19.20;10.13;;;;;10.00;102146.00;;;;5090176;28;20218;-77
2021/03/08 05:03:25;;;;;;;17.80;9.27;;;;;10.00;102149.00;;;;5089336;28;20202;-77
2021/03/08 05:05:54;;;;;;;18.85;10.20;;;;;10.00;102140.00;;;;5089781;28;20267;-77
2021/03/08 05:08:23;;;;;;;20.67;10.65;;;;;10.00;102154.00;;;;5089285;28;20224;-77
2021/03/08 05:10:52;;;;;;;18.95;9.90;;;;;10.00;102144.00;;;;5087631;28;20198;-77
2021/03/08 05:13:20;;;;;;;17.77;10.05;;;;;10.00;102145.00;;;;5071751;28;20203;-77
2021/03/08 05:15:47;;;;;;;18.90;9.90;;;;;10.00;102145.00;;;;5082516;28;20622;-77
2021/03/08 05:18:15;;;;;;;16.70;9.73;;;;;10.00;102152.00;;;;5076100;28;20653;-76
2021/03/08 05:20:43;;;;;;;20.15;10.70;;;;;10.00;102153.00;;;;5078886;28;20218;-78
2021/03/08 05:23:10;;;;;;;16.30;9.70;;;;;10.00;102148.00;;;;5089103;28;20206;-77
2021/03/08 05:25:37;;;;;;;17.35;9.68;;;;;10.00;102145.00;;;;5075942;28;20218;-77
2021/03/08 05:28:05;;;;;;;19.30;10.57;;;;;10.00;102151.00;;;;5075519;28;20661;-77
2021/03/08 05:30:32;;;;;;;19.15;10.68;;;;;10.00;102148.00;;;;5084033;28;20382;-77
2021/03/08 05:33:05;;;;;;;20.42;10.77;;;;;10.00;102142.00;;;;5087421;28;20209;-77
2021/03/08 05:35:32;;;;;;;18.40;9.70;;;;;10.00;102155.00;;;;5071314;28;20187;-77
2021/03/08 05:38:03;;;;;;;19.70;10.15;;;;;10.00;102151.00;;;;5077006;28;20207;-77
2021/03/08 05:40:38;;;;;;;16.38;8.38;;;;;10.00;102152.00;;;;5078928;28;20218;-77
2021/03/08 05:43:08;;;;;;;17.45;10.02;;;;;10.00;102148.00;;;;5072169;28;20228;-77
2021/03/08 05:45:36;;;;;;;20.98;10.65;;;;;10.00;102154.00;;;;5087579;28;20191;-77
2021/03/08 05:48:42;;;;;;;19.45;10.70;;;;;9.90;102158.00;;;;5087129;28;20197;-77
2021/03/08 05:51:46;;;;;;;16.77;9.63;;;;;10.00;102156.00;;;;5049022;28;20244;-77
2021/03/08 05:54:45;;;;;;;14.68;8.23;;;;;10.00;102155.00;;;;5074678;28;20190;-77
2021/03/08 05:57:33;;;;;;;15.80;8.52;;;;;10.00;102156.00;;;;5082785;28;20187;-77
2021/03/08 06:00:18;;;;;;;17.30;9.68;;;;;10.00;102161.00;;;;5085996;28;20713;-77
2021/03/08 06:02:54;;;;;;;17.58;8.77;;;;;10.00;102169.00;;;;5088071;28;20682;-77
2021/03/08 06:05:53;;;;;;;17.17;10.02;;;;;10.00;102163.00;;;;5077713;28;20214;-78
2021/03/08 06:08:49;;;;;;;17.83;9.25;;;;;10.00;102159.00;;;;5080330;28;20259;-77
2021/03/08 06:11:19;;;;;;;17.55;9.50;;;;;10.10;102166.00;;;;5077733;28;20202;-77
2021/03/08 06:13:55;;;;;;;15.95;9.68;;;;;10.20;102163.00;;;;5069262;28;20195;-77
2021/03/08 06:16:27;;;;;;;18.77;10.13;;;;;10.20;102165.00;;;;5084639;28;20202;-77
2021/03/08 06:18:55;;;;;;;14.77;8.43;;;;;10.20;102168.00;;;;5087170;28;20198;-77
2021/03/08 06:21:26;;;;;;;18.08;9.55;;;;;10.20;102168.00;;;;5086673;28;20222;-77
2021/03/08 06:23:54;;;;;;;18.63;10.13;;;;;10.30;102173.00;;;;5073552;28;20764;-77
2021/03/08 06:26:22;;;;;;;18.45;10.10;;;;;10.30;102170.00;;;;5077874;28;20195;-76
2021/03/08 06:28:49;;;;;;;16.83;9.80;;;;;10.30;102174.00;;;;5072841;28;20199;-77
2021/03/08 06:31:16;;;;;;;18.33;10.98;;;;;10.30;102178.00;;;;5085518;28;20679;-76
2021/03/08 06:33:43;;;;;;;19.40;10.68;;;;;10.40;102179.00;;;;5082899;28;20591;-77
2021/03/08 06:36:12;;;;;;;19.83;10.32;;;;;10.40;102181.00;;;;5088902;28;20205;-77
2021/03/08 06:38:40;;;;;;;18.70;10.10;;;;;10.40;102180.00;;;;5079314;28;20198;-76
2021/03/08 06:41:08;;;;;;;19.85;10.35;;;;;10.40;102187.00;;;;5088431;28;20238;-77
2021/03/08 06:43:37;;;;;;;20.13;10.85;;;;;10.40;102184.00;;;;5082935;28;20331;-77
2021/03/08 06:46:04;;;;;;;18.15;10.95;;;;;10.50;102181.00;;;;5078027;28;20760;-76
2021/03/08 06:48:31;;;;;;;20.88;11.13;;;;;10.50;102187.00;;;;5075273;28;20190;-76
2021/03/08 06:51:08;;;;;;;20.95;10.35;;;;;10.50;102185.00;;;;5088278;28;20202;-74
2021/03/08 06:53:35;;;;;;;17.77;10.18;;;;;10.50;102184.00;;;;5088326;28;20209;-74
2021/03/08 06:56:13;;;;;;;16.83;9.95;;;;;10.50;102183.00;;;;5088275;28;20198;-76
2021/03/08 06:58:41;;;;;;;19.10;10.90;;;;;10.60;102180.00;;;;5085941;28;20740;-76
2021/03/08 07:01:29;;;;;;;17.67;9.38;;;;;10.60;102187.00;;;;5087737;28;20226;-75
2021/03/08 07:03:56;;;;;;;19.83;9.95;;;;;10.70;102185.00;;;;5087469;28;20206;-76
2021/03/08 07:06:23;;;;;;;18.13;9.95;;;;;10.70;102186.00;;;;5078960;28;20202;-78
2021/03/08 07:08:50;;;;;;;21.15;11.23;;;;;10.70;102192.00;;;;5086081;28;20812;-76
2021/03/08 07:11:19;;;;;;;17.67;10.20;;;;;10.70;102188.00;;;;5083239;28;20253;-75
2021/03/08 07:13:47;;;;;;;15.82;9.02;;;;;10.80;102189.00;;;;5083925;28;20206;-76
2021/03/08 07:16:14;;;;;;;18.45;10.07;;;;;10.80;102195.00;;;;5071431;28;20583;-75
2021/03/08 07:18:41;;;;;;;17.98;10.65;;;;;10.80;102193.00;;;;5083432;28;20201;-75
2021/03/08 07:21:16;;;;;;;18.90;10.48;;;;;10.80;102194.00;;;;5085278;28;20214;-75
2021/03/08 07:23:44;;;;;;;20.23;11.10;;;;;10.90;102197.00;;;;5084764;28;20194;-75
2021/03/08 07:26:13;;;;;;;15.95;9.30;;;;;10.90;102206.00;;;;5086870;28;20571;-75
2021/03/08 07:28:40;;;;;;;16.05;9.38;;;;;10.90;102197.00;;;;5081505;28;20195;-76
2021/03/08 07:31:09;;;;;;;18.75;10.38;;;;;11.00;102200.00;;;;5079163;28;20206;-76
2021/03/08 07:33:36;;;;;;;21.58;10.45;;;;;11.00;102198.00;;;;5080697;28;20580;-76
2021/03/08 07:36:14;;;;;;;17.25;10.40;;;;;11.00;102200.00;;;;5081751;28;20578;-75
2021/03/08 07:38:41;;;;;;;17.52;10.02;;;;;11.10;102200.00;;;;5080076;28;20335;-75
2021/03/08 07:41:15;;;;;;;20.23;11.55;;;;;11.10;102200.00;;;;5083841;28;20219;-75
2021/03/08 07:43:43;;;;;;;18.00;10.32;;;;;11.10;102207.00;;;;5080494;28;20198;-76
2021/03/08 07:46:29;;;;;;;15.48;9.50;;;;;11.10;102209.00;;;;5080022;28;20588;-75
2021/03/08 07:48:56;;;;;;;20.20;10.07;;;;;11.20;102220.00;;;;5081407;28;20592;-75
2021/03/08 07:51:24;;;;;;;15.93;9.43;;;;;11.20;102217.00;;;;5071982;28;20210;-75
2021/03/08 07:54:00;;;;;;;26.63;11.32;;;;;11.20;102216.00;;;;5086645;28;20201;-75
2021/03/08 07:56:27;;;;;;;15.98;10.02;;;;;11.30;102211.00;;;;5089674;28;20194;-75
2021/03/08 07:58:55;;;;;;;23.25;11.23;;;;;11.30;102222.00;;;;5089685;28;20237;-75
2021/03/08 08:01:22;;;;;;;18.52;10.43;;;;;11.40;102213.00;;;;5072767;28;20246;-75
2021/03/08 08:03:50;;;;;;;21.80;12.18;;;;;11.40;102215.00;;;;5078064;28;20186;-75
2021/03/08 08:06:20;;;;;;;18.63;10.60;;;;;11.40;102219.00;;;;5084591;28;20198;-74
2021/03/08 08:08:49;;;;;;;21.20;11.82;;;;;11.50;102219.00;;;;5081794;28;20234;-75
2021/03/08 08:11:19;;;;;;;21.10;11.48;;;;;11.50;102212.00;;;;5086792;28;20202;-76
2021/03/08 08:13:49;;;;;;;17.75;9.68;;;;;11.50;102211.00;;;;5083708;28;20548;-76
2021/03/08 08:16:18;;;;;;;19.40;11.25;;;;;11.60;102214.00;;;;5083122;28;20243;-75
2021/03/08 08:18:47;;;;;;;19.88;10.68;;;;;11.60;102218.00;;;;5081245;28;20202;-75
2021/03/08 08:21:16;;;;;;;17.20;11.00;;;;;11.60;102217.00;;;;5079168;28;20226;-75
2021/03/08 08:23:45;;;;;;;18.05;10.73;;;;;11.60;102208.00;;;;5087059;28;20214;-75
2021/03/08 08:26:15;;;;;;;19.40;11.32;;;;;11.70;102214.00;;;;5083865;28;20198;-75
2021/03/08 08:28:44;;;;;;;18.60;9.90;;;;;11.70;102220.00;;;;5078294;28;20282;-75
2021/03/08 08:31:12;;;;;;;20.55;12.02;;;;;11.80;102221.00;;;;5085040;28;20205;-75
2021/03/08 08:33:39;;;;;;;19.08;10.52;;;;;11.90;102222.00;;;;5077263;28;20656;-76
2021/03/08 08:36:11;;;;;;;22.40;11.50;;;;;11.90;102213.00;;;;5079357;28;20201;-76
2021/03/08 08:38:40;;;;;;;19.08;10.93;;;;;12.00;102220.00;;;;5088557;28;20248;-75
2021/03/08 08:41:23;;;;;;;18.60;10.50;;;;;12.00;102222.00;;;;5086037;28;20226;-76
2021/03/08 08:44:37;;;;;;;16.40;9.75;;;;;12.00;102220.00;;;;5079063;28;20720;-77
2021/03/08 08:47:17;;;;;;;13.50;8.10;;;;;12.10;102232.00;;;;5084157;28;20683;-75
2021/03/08 08:49:47;;;;;;;16.73;10.00;;;;;12.20;102227.00;;;;5085857;28;20198;-75
2021/03/08 08:52:14;;;;;;;17.80;10.82;;;;;12.20;102220.00;;;;5078705;28;20198;-75
2021/03/08 08:54:55;;;;;;;17.95;9.82;;;;;12.20;102215.00;;;;5080813;28;20198;-75
2021/03/08 08:57:22;;;;;;;16.52;9.45;;;;;12.30;102216.00;;;;5086966;28;20193;-75
2021/03/08 09:00:19;;;;;;;20.83;10.35;;;;;12.20;102220.00;;;;5084439;28;20233;-75
2021/03/08 09:02:47;;;;;;;15.35;9.63;;;;;12.40;102215.00;;;;5081023;28;20194;-75
2021/03/08 09:05:41;;;;;;;20.50;10.38;;;;;12.40;102218.00;;;;5086146;28;20691;-74
2021/03/08 09:08:30;;;;;;;17.52;9.63;;;;;12.40;102221.00;;;;5079915;28;20202;-75
2021/03/08 09:10:59;;;;;;;14.93;8.77;;;;;12.60;102222.00;;;;5085513;28;20206;-76
2021/03/08 09:13:27;;;;;;;16.55;9.25;;;;;12.60;102225.00;;;;5085490;28;20198;-76
2021/03/08 09:15:56;;;;;;;19.60;9.35;;;;;12.60;102225.00;;;;5082209;28;20225;-75
2021/03/08 09:18:34;;;;;;;14.98;8.60;;;;;12.60;102227.00;;;;5080121;28;20688;-75
2021/03/08 09:21:20;;;;;;;13.88;8.07;;;;;12.60;102219.00;;;;5082772;28;20222;-76
2021/03/08 09:23:47;;;;;;;15.18;8.38;;;;;12.80;102211.00;;;;5086449;28;20202;-76
2021/03/08 09:26:14;;;;;;;16.02;9.60;;;;;12.80;102211.00;;;;5084879;28;20729;-75
2021/03/08 09:28:50;;;;;;;12.82;8.02;;;;;12.80;102215.00;;;;5086921;28;20255;-75
2021/03/08 09:31:23;;;;;;;13.27;8.20;;;;;12.90;102211.00;;;;5080877;28;20208;-75
2021/03/08 09:33:51;;;;;;;16.75;9.32;;;;;13.00;102207.00;;;;5082666;28;20202;-75
2021/03/08 09:36:19;;;;;;;14.85;8.63;;;;;13.00;102207.00;;;;5076685;28;20198;-75
2021/03/08 09:38:46;;;;;;;14.27;8.50;;;;;13.00;102218.00;;;;5085006;28;20244;-76
2021/03/08 09:41:13;;;;;;;14.27;8.52;;;;;13.10;102215.00;;;;5082684;28;20270;-76
2021/03/08 09:43:40;;;;;;;12.40;7.75;;;;;13.20;102217.00;;;;5082017;28;20198;-76
2021/03/08 09:46:09;;;;;;;18.05;10.35;;;;;13.10;102220.00;;;;5083735;28;20230;-76
2021/03/08 09:48:39;;;;;;;12.55;7.30;;;;;13.10;102225.00;;;;5074427;28;20975;-76
2021/03/08 09:51:09;;;;;;;17.48;9.32;;;;;13.20;102223.00;;;;5082296;28;20649;-76
2021/03/08 09:53:37;;;;;;;12.57;8.25;;;;;13.20;102225.00;;;;5088392;28;20194;-76
2021/03/08 09:56:09;;;;;;;14.18;8.23;;;;;13.20;102218.00;;;;5087497;28;20263;-76
2021/03/08 09:58:36;;;;;;;12.57;7.72;;;;;13.30;102222.00;;;;5087097;28;20742;-76
2021/03/08 10:01:15;;;;;;;13.57;8.05;;;;;13.30;102215.00;;;;5087810;28;20282;-77
2021/03/08 10:03:42;;;;;;;13.15;7.57;;;;;13.50;102220.00;;;;5080908;28;20245;-76
2021/03/08 10:06:21;;;;;;;13.07;7.65;;;;;13.50;102216.00;;;;5086030;28;20624;-75
2021/03/08 10:08:48;;;;;;;13.38;7.80;;;;;13.60;102216.00;;;;5080674;28;20552;-74
2021/03/08 10:11:21;;;;;;;14.27;8.02;;;;;13.60;102225.00;;;;5084989;28;20202;-75
2021/03/08 10:13:48;;;;;;;11.32;7.15;;;;;13.80;102225.00;;;;5087865;28;20190;-75
2021/03/08 10:16:21;;;;;;;9.57;6.35;;;;;13.80;102212.00;;;;5087349;28;20264;-75
2021/03/08 10:18:48;;;;;;;12.15;7.22;;;;;14.00;102212.00;;;;5086190;28;20687;-75
2021/03/08 10:21:16;;;;;;;12.52;7.40;;;;;14.10;102217.00;;;;5080055;28;20226;-76
2021/03/08 10:23:42;;;;;;;14.90;7.15;;;;;14.20;102214.00;;;;5083861;28;20198;-76
2021/03/08 10:26:11;;;;;;;10.13;6.25;;;;;14.30;102206.00;;;;5082539;28;20590;-76
2021/03/08 10:28:39;;;;;;;10.75;6.63;;;;;14.30;102205.00;;;;5083595;28;20216;-76
2021/03/08 10:31:07;;;;;;;10.90;6.72;;;;;14.40;102206.00;;;;5072998;28;20721;-76
2021/03/08 10:33:35;;;;;;;13.23;7.35;;;;;14.50;102206.00;;;;5086661;28;20206;-76
2021/03/08 10:36:02;;;;;;;11.57;7.13;;;;;14.60;102206.00;;;;5087506;28;20209;-76
2021/03/08 10:38:32;;;;;;;10.77;7.30;;;;;14.60;102202.00;;;;5087471;28;20187;-76
2021/03/08 10:41:01;;;;;;;10.85;7.25;;;;;14.70;102201.00;;;;5082392;28;20686;-77
2021/03/08 10:43:28;;;;;;;12.93;8.10;;;;;14.70;102201.00;;;;5088080;28;20198;-76
2021/03/08 10:45:57;;;;;;;10.48;6.95;;;;;14.80;102206.00;;;;5087005;28;20279;-76
2021/03/08 10:48:26;;;;;;;12.07;7.65;;;;;14.80;102202.00;;;;5086090;28;20194;-75
2021/03/08 10:50:55;;;;;;;12.00;7.75;;;;;14.80;102197.00;;;;5086366;28;20581;-75
2021/03/08 10:53:24;;;;;;;10.68;6.82;;;;;14.80;102200.00;;;;5084562;28;20201;-76
2021/03/08 10:55:53;;;;;;;11.63;7.50;;;;;14.80;102202.00;;;;5084673;28;20664;-77
2021/03/08 10:58:34;;;;;;;12.70;7.97;;;;;14.70;102203.00;;;;5083001;28;20198;-76
2021/03/08 11:01:07;;;;;;;11.43;6.72;;;;;14.60;102204.00;;;;5081461;28;20229;-76
2021/03/08 11:03:35;;;;;;;10.07;6.88;;;;;14.60;102201.00;;;;5083757;28;20238;-79
2021/03/08 11:06:06;;;;;;;11.75;7.32;;;;;14.60;102202.00;;;;5084736;28;20198;-75
2021/03/08 11:08:34;;;;;;;9.88;6.53;;;;;14.70;102199.00;;;;5084375;28;20213;-76
2021/03/08 11:11:01;;;;;;;12.32;7.35;;;;;14.80;102212.00;;;;5083711;28;20202;-76
2021/03/08 11:13:33;;;;;;;10.52;6.57;;;;;14.80;102196.00;;;;5084644;28;20198;-76
2021/03/08 11:16:10;;;;;;;8.73;6.05;;;;;14.90;102210.00;;;;5082399;28;20260;-75
2021/03/08 11:18:38;;;;;;;7.90;5.57;;;;;15.10;102204.00;;;;5083954;28;20198;-76
2021/03/08 11:21:26;;;;;;;12.85;6.07;;;;;15.10;102202.00;;;;5091243;28;20240;-76
2021/03/08 11:23:53;;;;;;;7.45;5.45;;;;;15.40;102203.00;;;;5089178;28;20226;-76
2021/03/08 11:26:22;;;;;;;9.60;6.38;;;;;15.50;102210.00;;;;5086100;28;20195;-76
2021/03/08 11:28:49;;;;;;;8.57;5.65;;;;;15.70;102205.00;;;;5086618;28;20688;-75
2021/03/08 11:31:23;;;;;;;8.70;5.88;;;;;15.90;102197.00;;;;5081985;28;20197;-76
2021/03/08 11:33:52;;;;;;;8.88;5.88;;;;;16.10;102199.00;;;;5077189;28;20216;-76
2021/03/08 11:36:31;;;;;;;9.18;5.40;;;;;16.10;102195.00;;;;5080369;28;20263;-79
2021/03/08 11:39:03;;;;;;;10.20;5.75;;;;;16.30;102194.00;;;;5088214;28;20229;-79
2021/03/08 11:41:31;;;;;;;7.60;5.25;;;;;16.50;102186.00;;;;5087426;28;20229;-78
2021/03/08 11:43:58;;;;;;;8.75;5.25;;;;;16.60;102188.00;;;;5091593;28;20206;-78
2021/03/08 11:46:25;;;;;;;7.25;4.90;;;;;16.70;102186.00;;;;5089882;28;20234;-79
2021/03/08 11:49:00;;;;;;;7.40;5.57;;;;;16.70;102185.00;;;;5088611;28;20202;-79
2021/03/08 11:51:28;;;;;;;9.05;6.05;;;;;16.90;102184.00;;;;5086381;28;20547;-79
2021/03/08 11:53:55;;;;;;;7.57;5.35;;;;;17.00;102182.00;;;;5090481;28;20198;-79
2021/03/08 11:56:23;;;;;;;8.00;5.07;;;;;17.10;102182.00;;;;5081201;28;20202;-79
2021/03/08 11:58:51;;;;;;;6.88;4.47;;;;;17.10;102183.00;;;;5088333;28;20202;-79
2021/03/08 12:01:18;;;;;;;6.55;4.13;;;;;17.20;102177.00;;;;5085298;28;20248;-79
2021/03/08 12:03:45;;;;;;;7.85;5.03;;;;;17.20;102182.00;;;;5083236;28;20201;-79
2021/03/08 12:06:11;;;;;;;8.20;5.32;;;;;17.20;102180.00;;;;5086932;28;20217;-79
2021/03/08 12:08:38;;;;;;;7.47;4.68;;;;;17.30;102181.00;;;;5089449;28;20210;-79
2021/03/08 12:11:05;;;;;;;8.07;4.80;;;;;17.30;102182.00;;;;5089369;28;20362;-79
2021/03/08 12:13:32;;;;;;;5.63;4.18;;;;;17.30;102171.00;;;;5089217;28;20198;-79
2021/03/08 12:15:59;;;;;;;5.40;3.92;;;;;17.40;102172.00;;;;5089545;28;20206;-79